Paso de los Libres, Argentina
Current Conditions -  °F | °C
As of 7:00 PM on Saturday 25 Oct 2014 (Local Time) from SARL Reporting Station
Clear Clear  
Wind Chill: 81°   Ceiling: Unl
Heat Index: 82°   Visibility: 6mi
Dew Point: 63°   Wind: 6mph
Humidity: 54%   Direction: 90°E
Pressure: 29.83"   Gusts: NA
Location:  29.72°S, 57.08°W
Report Text: SARL 252200Z 09005KT 9999 NSC 27/17 Q1010
Loading
Personal Weather Stations






























Interactive Weather Map New forecast layout! Learn more

10-Day Weather Forecast

Advertisements
Track Severe Weather on mobile